Orange Park, Florida
Current Conditions -  °F | °C
As of 1:53 AM on Sunday 26 Oct 2014 (Local Time) from KNIP Reporting Station
Clear Clear  
Wind Chill: 61°   Ceiling: Unl
Heat Index: 61°   Visibility: 10mi
Dew Point: 53°   Wind: 7mph
Humidity: 75%   Direction: 250°WSW
Pressure: 29.99"   Gusts: NA
Location:  30.17°N, 81.7°W
Report Text: KNIP 260553Z 25006KT 10SM CLR 16/12 A2999 RMK AO2 SLP151 T01610117 10222 20161 56010
Loading
Personal Weather Stations






























Interactive Weather Map New forecast layout! Learn more

10-Day Weather Forecast

Advertisements
Track Severe Weather on mobile